sensor_id;sensor_type;location;lat;lon;timestamp;temperature;humidity
16785;DHT22;8509;52.178;5.404;2023-09-12T00:01:42;19.80;99.90
16785;DHT22;8509;52.178;5.404;2023-09-12T00:04:08;19.80;99.90
16785;DHT22;8509;52.178;5.404;2023-09-12T00:06:34;19.70;99.90
16785;DHT22;8509;52.178;5.404;2023-09-12T00:09:00;19.70;99.90
16785;DHT22;8509;52.178;5.404;2023-09-12T00:11:25;19.60;99.90
16785;DHT22;8509;52.178;5.404;2023-09-12T00:13:51;19.60;99.90
16785;DHT22;8509;52.178;5.404;2023-09-12T00:16:17;19.50;99.90
16785;DHT22;8509;52.178;5.404;2023-09-12T00:18:43;19.50;99.90
16785;DHT22;8509;52.178;5.404;2023-09-12T00:21:09;19.50;99.90
16785;DHT22;8509;52.178;5.404;2023-09-12T00:23:35;19.50;99.90
16785;DHT22;8509;52.178;5.404;2023-09-12T00:26:00;19.40;99.90
16785;DHT22;8509;52.178;5.404;2023-09-12T00:28:26;19.40;99.90
16785;DHT22;8509;52.178;5.404;2023-09-12T00:30:52;19.40;99.90
16785;DHT22;8509;52.178;5.404;2023-09-12T00:33:18;19.30;99.90
16785;DHT22;8509;52.178;5.404;2023-09-12T00:35:44;19.30;99.90
16785;DHT22;8509;52.178;5.404;2023-09-12T00:38:10;19.30;99.90
16785;DHT22;8509;52.178;5.404;2023-09-12T00:40:36;19.20;99.90
16785;DHT22;8509;52.178;5.404;2023-09-12T00:43:03;19.20;99.90
16785;DHT22;8509;52.178;5.404;2023-09-12T00:45:28;19.20;99.90
16785;DHT22;8509;52.178;5.404;2023-09-12T00:47:56;19.20;99.90
16785;DHT22;8509;52.178;5.404;2023-09-12T00:50:24;19.20;99.90
16785;DHT22;8509;52.178;5.404;2023-09-12T00:52:51;19.10;99.90
16785;DHT22;8509;52.178;5.404;2023-09-12T00:55:17;19.10;99.90
16785;DHT22;8509;52.178;5.404;2023-09-12T00:57:43;19.10;99.90
16785;DHT22;8509;52.178;5.404;2023-09-12T01:00:11;19.00;99.90
16785;DHT22;8509;52.178;5.404;2023-09-12T01:02:39;19.00;99.90
16785;DHT22;8509;52.178;5.404;2023-09-12T01:05:06;19.00;99.90
16785;DHT22;8509;52.178;5.404;2023-09-12T01:07:33;19.00;99.90
16785;DHT22;8509;52.178;5.404;2023-09-12T01:10:00;18.90;99.90
16785;DHT22;8509;52.178;5.404;2023-09-12T01:12:26;18.90;99.90
16785;DHT22;8509;52.178;5.404;2023-09-12T01:14:52;18.90;99.90
16785;DHT22;8509;52.178;5.404;2023-09-12T01:17:18;18.90;99.90
16785;DHT22;8509;52.178;5.404;2023-09-12T01:19:44;18.90;99.90
16785;DHT22;8509;52.178;5.404;2023-09-12T01:25:08;18.90;99.90
16785;DHT22;8509;52.178;5.404;2023-09-12T01:27:38;18.90;99.90
16785;DHT22;8509;52.178;5.404;2023-09-12T01:30:06;18.80;99.90
16785;DHT22;8509;52.178;5.404;2023-09-12T01:32:33;18.80;99.90
16785;DHT22;8509;52.178;5.404;2023-09-12T01:34:59;18.80;99.90
16785;DHT22;8509;52.178;5.404;2023-09-12T01:37:25;18.80;99.90
16785;DHT22;8509;52.178;5.404;2023-09-12T01:39:52;18.80;99.90
16785;DHT22;8509;52.178;5.404;2023-09-12T01:42:20;18.70;99.90
16785;DHT22;8509;52.178;5.404;2023-09-12T01:44:50;18.80;99.90
16785;DHT22;8509;52.178;5.404;2023-09-12T01:47:17;18.80;99.90
16785;DHT22;8509;52.178;5.404;2023-09-12T01:49:46;18.70;99.90
16785;DHT22;8509;52.178;5.404;2023-09-12T01:52:14;18.70;99.90
16785;DHT22;8509;52.178;5.404;2023-09-12T01:54:41;18.60;99.90
16785;DHT22;8509;52.178;5.404;2023-09-12T01:57:08;18.60;99.90
16785;DHT22;8509;52.178;5.404;2023-09-12T01:59:34;18.60;99.90
16785;DHT22;8509;52.178;5.404;2023-09-12T02:02:00;18.60;99.90
16785;DHT22;8509;52.178;5.404;2023-09-12T02:04:26;18.60;99.90
16785;DHT22;8509;52.178;5.404;2023-09-12T02:06:51;18.60;99.90
16785;DHT22;8509;52.178;5.404;2023-09-12T02:09:17;18.50;99.90
16785;DHT22;8509;52.178;5.404;2023-09-12T02:11:43;18.50;99.90
16785;DHT22;8509;52.178;5.404;2023-09-12T02:14:08;18.50;99.90
16785;DHT22;8509;52.178;5.404;2023-09-12T02:16:36;18.50;99.90
16785;DHT22;8509;52.178;5.404;2023-09-12T02:19:05;18.40;99.90
16785;DHT22;8509;52.178;5.404;2023-09-12T02:21:31;18.40;99.90
16785;DHT22;8509;52.178;5.404;2023-09-12T02:23:57;18.40;99.90
16785;DHT22;8509;52.178;5.404;2023-09-12T02:26:22;18.40;99.90
16785;DHT22;8509;52.178;5.404;2023-09-12T02:28:48;18.40;99.90
16785;DHT22;8509;52.178;5.404;2023-09-12T02:31:14;18.40;99.90
16785;DHT22;8509;52.178;5.404;2023-09-12T02:33:39;18.30;99.90
16785;DHT22;8509;52.178;5.404;2023-09-12T02:36:05;18.30;99.90
16785;DHT22;8509;52.178;5.404;2023-09-12T02:38:31;18.30;99.90
16785;DHT22;8509;52.178;5.404;2023-09-12T02:40:58;18.30;99.90
16785;DHT22;8509;52.178;5.404;2023-09-12T02:43:23;18.30;99.90
16785;DHT22;8509;52.178;5.404;2023-09-12T02:45:49;18.20;99.90
16785;DHT22;8509;52.178;5.404;2023-09-12T02:48:15;18.20;99.90
16785;DHT22;8509;52.178;5.404;2023-09-12T02:50:40;18.20;99.90
16785;DHT22;8509;52.178;5.404;2023-09-12T02:53:06;18.10;99.90
16785;DHT22;8509;52.178;5.404;2023-09-12T02:55:32;18.10;99.90
16785;DHT22;8509;52.178;5.404;2023-09-12T02:57:59;18.10;99.90
16785;DHT22;8509;52.178;5.404;2023-09-12T03:00:25;18.10;99.90
16785;DHT22;8509;52.178;5.404;2023-09-12T03:02:50;18.10;99.90
16785;DHT22;8509;52.178;5.404;2023-09-12T03:05:16;18.10;99.90
16785;DHT22;8509;52.178;5.404;2023-09-12T03:07:42;18.10;99.90
16785;DHT22;8509;52.178;5.404;2023-09-12T03:10:08;18.10;99.90
16785;DHT22;8509;52.178;5.404;2023-09-12T03:12:37;18.10;99.90
16785;DHT22;8509;52.178;5.404;2023-09-12T03:15:03;18.10;99.90
16785;DHT22;8509;52.178;5.404;2023-09-12T03:17:29;18.00;99.90
16785;DHT22;8509;52.178;5.404;2023-09-12T03:19:54;18.10;99.90
16785;DHT22;8509;52.178;5.404;2023-09-12T03:22:20;18.00;99.90
16785;DHT22;8509;52.178;5.404;2023-09-12T03:24:46;17.90;99.90
16785;DHT22;8509;52.178;5.404;2023-09-12T03:27:11;18.00;99.90
16785;DHT22;8509;52.178;5.404;2023-09-12T03:29:38;17.90;99.90
16785;DHT22;8509;52.178;5.404;2023-09-12T03:32:05;17.90;99.90
16785;DHT22;8509;52.178;5.404;2023-09-12T03:34:30;17.90;99.90
16785;DHT22;8509;52.178;5.404;2023-09-12T03:36:56;17.90;99.90
16785;DHT22;8509;52.178;5.404;2023-09-12T03:39:21;17.90;99.90
16785;DHT22;8509;52.178;5.404;2023-09-12T03:41:47;17.90;99.90
16785;DHT22;8509;52.178;5.404;2023-09-12T03:44:13;17.90;99.90
16785;DHT22;8509;52.178;5.404;2023-09-12T03:46:39;18.00;99.90
16785;DHT22;8509;52.178;5.404;2023-09-12T03:49:06;17.90;99.90
16785;DHT22;8509;52.178;5.404;2023-09-12T03:51:33;17.90;99.90
16785;DHT22;8509;52.178;5.404;2023-09-12T03:54:00;17.90;99.90
16785;DHT22;8509;52.178;5.404;2023-09-12T03:56:25;17.90;99.90
16785;DHT22;8509;52.178;5.404;2023-09-12T03:58:51;17.90;99.90
16785;DHT22;8509;52.178;5.404;2023-09-12T04:01:17;18.00;99.90
16785;DHT22;8509;52.178;5.404;2023-09-12T04:03:43;18.00;99.90
16785;DHT22;8509;52.178;5.404;2023-09-12T04:06:12;18.00;99.90
16785;DHT22;8509;52.178;5.404;2023-09-12T04:08:38;18.10;99.90
16785;DHT22;8509;52.178;5.404;2023-09-12T04:11:04;18.10;99.90
16785;DHT22;8509;52.178;5.404;2023-09-12T04:13:30;18.10;99.90
16785;DHT22;8509;52.178;5.404;2023-09-12T04:15:56;18.20;99.90
16785;DHT22;8509;52.178;5.404;2023-09-12T04:18:22;18.20;99.90
16785;DHT22;8509;52.178;5.404;2023-09-12T04:20:47;18.20;99.90
16785;DHT22;8509;52.178;5.404;2023-09-12T04:23:13;18.20;99.90
16785;DHT22;8509;52.178;5.404;2023-09-12T04:25:42;18.20;99.90
16785;DHT22;8509;52.178;5.404;2023-09-12T04:28:08;18.20;99.90
16785;DHT22;8509;52.178;5.404;2023-09-12T04:30:35;18.20;99.90
16785;DHT22;8509;52.178;5.404;2023-09-12T04:33:00;18.30;99.90
16785;DHT22;8509;52.178;5.404;2023-09-12T04:35:26;18.30;99.90
16785;DHT22;8509;52.178;5.404;2023-09-12T04:37:52;18.30;99.90
16785;DHT22;8509;52.178;5.404;2023-09-12T04:40:17;18.30;99.90
16785;DHT22;8509;52.178;5.404;2023-09-12T04:42:43;18.30;99.90
16785;DHT22;8509;52.178;5.404;2023-09-12T04:45:09;18.30;99.90
16785;DHT22;8509;52.178;5.404;2023-09-12T04:47:34;18.30;99.90
16785;DHT22;8509;52.178;5.404;2023-09-12T04:50:00;18.30;99.90
16785;DHT22;8509;52.178;5.404;2023-09-12T04:52:27;18.30;99.90
16785;DHT22;8509;52.178;5.404;2023-09-12T04:54:52;18.30;99.90
16785;DHT22;8509;52.178;5.404;2023-09-12T04:57:18;18.20;99.90
16785;DHT22;8509;52.178;5.404;2023-09-12T04:59:44;18.30;99.90
16785;DHT22;8509;52.178;5.404;2023-09-12T05:02:09;18.20;99.90
16785;DHT22;8509;52.178;5.404;2023-09-12T05:04:35;18.20;99.90
16785;DHT22;8509;52.178;5.404;2023-09-12T05:07:01;18.20;99.90
16785;DHT22;8509;52.178;5.404;2023-09-12T05:09:26;18.20;99.90
16785;DHT22;8509;52.178;5.404;2023-09-12T05:11:52;18.20;99.90
16785;DHT22;8509;52.178;5.404;2023-09-12T05:14:17;18.20;99.90
16785;DHT22;8509;52.178;5.404;2023-09-12T05:16:43;18.10;99.90
16785;DHT22;8509;52.178;5.404;2023-09-12T05:19:09;18.10;99.90
16785;DHT22;8509;52.178;5.404;2023-09-12T05:21:34;18.10;99.90
16785;DHT22;8509;52.178;5.404;2023-09-12T05:24:00;18.10;99.90
16785;DHT22;8509;52.178;5.404;2023-09-12T05:26:25;18.10;99.90
16785;DHT22;8509;52.178;5.404;2023-09-12T05:28:51;18.10;99.90
16785;DHT22;8509;52.178;5.404;2023-09-12T05:31:18;18.10;99.90
16785;DHT22;8509;52.178;5.404;2023-09-12T05:33:43;18.10;99.90
16785;DHT22;8509;52.178;5.404;2023-09-12T05:36:09;18.20;99.90
16785;DHT22;8509;52.178;5.404;2023-09-12T05:38:35;18.10;99.90
16785;DHT22;8509;52.178;5.404;2023-09-12T05:41:00;18.20;99.90
16785;DHT22;8509;52.178;5.404;2023-09-12T05:43:26;18.20;99.90
16785;DHT22;8509;52.178;5.404;2023-09-12T05:45:53;18.20;99.90
16785;DHT22;8509;52.178;5.404;2023-09-12T05:48:19;18.20;99.90
16785;DHT22;8509;52.178;5.404;2023-09-12T05:50:44;18.20;99.90
16785;DHT22;8509;52.178;5.404;2023-09-12T05:53:10;18.30;99.90
16785;DHT22;8509;52.178;5.404;2023-09-12T05:55:36;18.40;99.90
16785;DHT22;8509;52.178;5.404;2023-09-12T05:58:02;18.50;99.90
16785;DHT22;8509;52.178;5.404;2023-09-12T06:00:29;18.60;99.90
16785;DHT22;8509;52.178;5.404;2023-09-12T06:02:54;18.70;99.90
16785;DHT22;8509;52.178;5.404;2023-09-12T06:05:20;18.90;99.90
16785;DHT22;8509;52.178;5.404;2023-09-12T06:07:46;19.00;99.90
16785;DHT22;8509;52.178;5.404;2023-09-12T06:10:14;19.10;99.90
16785;DHT22;8509;52.178;5.404;2023-09-12T06:12:40;19.10;99.90
16785;DHT22;8509;52.178;5.404;2023-09-12T06:15:06;19.30;99.90
16785;DHT22;8509;52.178;5.404;2023-09-12T06:17:32;19.40;99.90
16785;DHT22;8509;52.178;5.404;2023-09-12T06:19:58;19.40;99.90
16785;DHT22;8509;52.178;5.404;2023-09-12T06:22:24;19.40;99.90
16785;DHT22;8509;52.178;5.404;2023-09-12T06:24:51;19.40;99.90
16785;DHT22;8509;52.178;5.404;2023-09-12T06:27:16;19.50;99.90
16785;DHT22;8509;52.178;5.404;2023-09-12T06:29:47;19.50;99.90
16785;DHT22;8509;52.178;5.404;2023-09-12T06:32:18;19.50;99.90
16785;DHT22;8509;52.178;5.404;2023-09-12T06:34:44;19.50;99.90
16785;DHT22;8509;52.178;5.404;2023-09-12T06:37:13;19.50;99.90
16785;DHT22;8509;52.178;5.404;2023-09-12T06:39:38;19.60;99.90
16785;DHT22;8509;52.178;5.404;2023-09-12T06:42:04;19.70;99.90
16785;DHT22;8509;52.178;5.404;2023-09-12T06:44:30;19.70;99.90
16785;DHT22;8509;52.178;5.404;2023-09-12T06:46:55;19.90;99.90
16785;DHT22;8509;52.178;5.404;2023-09-12T06:49:21;19.90;99.90
16785;DHT22;8509;52.178;5.404;2023-09-12T06:51:47;20.00;99.90
16785;DHT22;8509;52.178;5.404;2023-09-12T06:54:12;20.10;99.90
16785;DHT22;8509;52.178;5.404;2023-09-12T06:56:38;20.10;99.90
16785;DHT22;8509;52.178;5.404;2023-09-12T06:59:07;20.20;99.90
16785;DHT22;8509;52.178;5.404;2023-09-12T07:01:33;20.30;99.90
16785;DHT22;8509;52.178;5.404;2023-09-12T07:03:58;20.30;99.90
16785;DHT22;8509;52.178;5.404;2023-09-12T07:06:24;20.40;99.90
16785;DHT22;8509;52.178;5.404;2023-09-12T07:08:50;20.50;99.90
16785;DHT22;8509;52.178;5.404;2023-09-12T07:11:16;20.60;99.90
16785;DHT22;8509;52.178;5.404;2023-09-12T07:13:42;20.60;99.90
16785;DHT22;8509;52.178;5.404;2023-09-12T07:16:08;20.60;99.90
16785;DHT22;8509;52.178;5.404;2023-09-12T07:18:33;20.60;99.90
16785;DHT22;8509;52.178;5.404;2023-09-12T07:21:04;20.60;99.90
16785;DHT22;8509;52.178;5.404;2023-09-12T07:23:30;20.60;99.90
16785;DHT22;8509;52.178;5.404;2023-09-12T07:25:57;20.60;99.90
16785;DHT22;8509;52.178;5.404;2023-09-12T07:28:26;20.50;99.90
16785;DHT22;8509;52.178;5.404;2023-09-12T07:30:52;20.50;99.90
16785;DHT22;8509;52.178;5.404;2023-09-12T07:33:18;20.50;99.90
16785;DHT22;8509;52.178;5.404;2023-09-12T07:35:54;20.50;99.90
16785;DHT22;8509;52.178;5.404;2023-09-12T07:38:30;20.50;99.90
16785;DHT22;8509;52.178;5.404;2023-09-12T07:41:00;20.40;99.90
16785;DHT22;8509;52.178;5.404;2023-09-12T07:43:28;20.40;99.90
16785;DHT22;8509;52.178;5.404;2023-09-12T07:45:58;20.30;99.90
16785;DHT22;8509;52.178;5.404;2023-09-12T07:48:23;20.40;99.90
16785;DHT22;8509;52.178;5.404;2023-09-12T07:50:49;20.70;99.90
16785;DHT22;8509;52.178;5.404;2023-09-12T07:53:17;21.10;99.90
16785;DHT22;8509;52.178;5.404;2023-09-12T07:55:43;21.50;99.90
16785;DHT22;8509;52.178;5.404;2023-09-12T07:58:15;21.90;99.90
16785;DHT22;8509;52.178;5.404;2023-09-12T08:00:43;22.30;99.90
16785;DHT22;8509;52.178;5.404;2023-09-12T08:03:10;22.60;99.90
16785;DHT22;8509;52.178;5.404;2023-09-12T08:05:36;23.00;99.90
16785;DHT22;8509;52.178;5.404;2023-09-12T08:08:02;23.40;99.90
16785;DHT22;8509;52.178;5.404;2023-09-12T08:10:28;23.80;99.90
16785;DHT22;8509;52.178;5.404;2023-09-12T08:12:54;24.30;99.90
16785;DHT22;8509;52.178;5.404;2023-09-12T08:15:19;25.00;99.90
16785;DHT22;8509;52.178;5.404;2023-09-12T08:17:45;25.60;99.90
16785;DHT22;8509;52.178;5.404;2023-09-12T08:20:17;26.30;99.90
16785;DHT22;8509;52.178;5.404;2023-09-12T08:22:43;26.60;99.90
16785;DHT22;8509;52.178;5.404;2023-09-12T08:25:09;26.90;99.90
16785;DHT22;8509;52.178;5.404;2023-09-12T08:27:35;27.20;99.90
16785;DHT22;8509;52.178;5.404;2023-09-12T08:30:01;27.40;99.90
16785;DHT22;8509;52.178;5.404;2023-09-12T08:32:27;27.20;99.90
16785;DHT22;8509;52.178;5.404;2023-09-12T08:34:53;27.10;99.90
16785;DHT22;8509;52.178;5.404;2023-09-12T08:37:19;27.00;99.90
16785;DHT22;8509;52.178;5.404;2023-09-12T08:39:47;26.80;99.90
16785;DHT22;8509;52.178;5.404;2023-09-12T08:42:14;26.60;99.90
16785;DHT22;8509;52.178;5.404;2023-09-12T08:44:41;25.90;99.90
16785;DHT22;8509;52.178;5.404;2023-09-12T08:47:08;25.50;99.90
16785;DHT22;8509;52.178;5.404;2023-09-12T08:49:35;25.30;99.90
16785;DHT22;8509;52.178;5.404;2023-09-12T08:52:03;25.30;99.90
16785;DHT22;8509;52.178;5.404;2023-09-12T08:54:29;25.30;99.90
16785;DHT22;8509;52.178;5.404;2023-09-12T08:56:55;25.50;99.90
16785;DHT22;8509;52.178;5.404;2023-09-12T08:59:21;25.30;99.90
16785;DHT22;8509;52.178;5.404;2023-09-12T09:01:47;25.40;99.90
16785;DHT22;8509;52.178;5.404;2023-09-12T09:04:18;25.40;99.90
16785;DHT22;8509;52.178;5.404;2023-09-12T09:06:47;25.50;99.90
16785;DHT22;8509;52.178;5.404;2023-09-12T09:09:13;25.60;99.90
16785;DHT22;8509;52.178;5.404;2023-09-12T09:11:39;25.70;99.90
16785;DHT22;8509;52.178;5.404;2023-09-12T09:14:05;25.80;99.90
16785;DHT22;8509;52.178;5.404;2023-09-12T09:16:31;25.60;99.90
16785;DHT22;8509;52.178;5.404;2023-09-12T09:18:58;25.60;99.90
16785;DHT22;8509;52.178;5.404;2023-09-12T09:21:33;25.50;99.90
16785;DHT22;8509;52.178;5.404;2023-09-12T09:24:01;25.50;99.90
16785;DHT22;8509;52.178;5.404;2023-09-12T09:29:17;25.50;99.90
16785;DHT22;8509;52.178;5.404;2023-09-12T09:31:45;25.40;99.90
16785;DHT22;8509;52.178;5.404;2023-09-12T09:34:16;25.00;99.90
16785;DHT22;8509;52.178;5.404;2023-09-12T09:36:43;24.80;99.90
16785;DHT22;8509;52.178;5.404;2023-09-12T09:39:09;24.70;99.90
16785;DHT22;8509;52.178;5.404;2023-09-12T09:41:36;24.80;99.90
16785;DHT22;8509;52.178;5.404;2023-09-12T09:44:04;25.00;99.90
16785;DHT22;8509;52.178;5.404;2023-09-12T09:46:29;25.20;99.90
16785;DHT22;8509;52.178;5.404;2023-09-12T09:48:57;25.40;99.90
16785;DHT22;8509;52.178;5.404;2023-09-12T09:51:24;25.50;99.90
16785;DHT22;8509;52.178;5.404;2023-09-12T09:53:53;25.50;99.90
16785;DHT22;8509;52.178;5.404;2023-09-12T09:56:24;25.50;99.90
16785;DHT22;8509;52.178;5.404;2023-09-12T09:58:55;25.60;99.90
16785;DHT22;8509;52.178;5.404;2023-09-12T10:01:23;25.90;99.90
16785;DHT22;8509;52.178;5.404;2023-09-12T10:03:53;26.20;99.90
16785;DHT22;8509;52.178;5.404;2023-09-12T10:06:24;26.40;99.90
16785;DHT22;8509;52.178;5.404;2023-09-12T10:08:52;26.40;99.90
16785;DHT22;8509;52.178;5.404;2023-09-12T10:11:19;26.50;99.90
16785;DHT22;8509;52.178;5.404;2023-09-12T10:13:57;26.50;99.90
16785;DHT22;8509;52.178;5.404;2023-09-12T10:16:47;26.50;99.90
16785;DHT22;8509;52.178;5.404;2023-09-12T10:19:23;26.50;99.90
16785;DHT22;8509;52.178;5.404;2023-09-12T10:24:40;26.40;99.90
16785;DHT22;8509;52.178;5.404;2023-09-12T10:27:08;26.30;99.90
16785;DHT22;8509;52.178;5.404;2023-09-12T10:29:35;26.10;99.90
16785;DHT22;8509;52.178;5.404;2023-09-12T10:32:01;26.00;99.90
16785;DHT22;8509;52.178;5.404;2023-09-12T10:34:27;25.90;99.90
16785;DHT22;8509;52.178;5.404;2023-09-12T10:36:55;26.00;99.90
16785;DHT22;8509;52.178;5.404;2023-09-12T10:39:24;26.00;99.90
16785;DHT22;8509;52.178;5.404;2023-09-12T10:41:54;26.10;99.90
16785;DHT22;8509;52.178;5.404;2023-09-12T10:44:21;26.00;99.90
16785;DHT22;8509;52.178;5.404;2023-09-12T10:46:47;25.90;99.90
16785;DHT22;8509;52.178;5.404;2023-09-12T10:49:14;25.90;99.90
16785;DHT22;8509;52.178;5.404;2023-09-12T10:51:45;25.70;99.90
16785;DHT22;8509;52.178;5.404;2023-09-12T10:54:25;25.60;99.90
16785;DHT22;8509;52.178;5.404;2023-09-12T10:57:10;25.60;99.90
16785;DHT22;8509;52.178;5.404;2023-09-12T11:02:37;25.70;99.90
16785;DHT22;8509;52.178;5.404;2023-09-12T11:05:34;25.60;99.90
16785;DHT22;8509;52.178;5.404;2023-09-12T11:08:00;25.70;99.90
16785;DHT22;8509;52.178;5.404;2023-09-12T11:10:27;25.70;99.90
16785;DHT22;8509;52.178;5.404;2023-09-12T11:12:54;25.60;99.90
16785;DHT22;8509;52.178;5.404;2023-09-12T11:15:24;25.60;99.90
16785;DHT22;8509;52.178;5.404;2023-09-12T11:18:11;25.60;99.90
16785;DHT22;8509;52.178;5.404;2023-09-12T11:23:23;25.70;99.90
16785;DHT22;8509;52.178;5.404;2023-09-12T11:26:05;25.60;99.90
16785;DHT22;8509;52.178;5.404;2023-09-12T11:28:31;25.60;99.90
16785;DHT22;8509;52.178;5.404;2023-09-12T11:30:58;25.50;99.90
16785;DHT22;8509;52.178;5.404;2023-09-12T11:33:27;25.60;99.90
16785;DHT22;8509;52.178;5.404;2023-09-12T11:35:56;25.70;99.90
16785;DHT22;8509;52.178;5.404;2023-09-12T11:38:30;25.80;99.90
16785;DHT22;8509;52.178;5.404;2023-09-12T11:40:59;25.80;99.90
16785;DHT22;8509;52.178;5.404;2023-09-12T11:43:26;25.80;99.90
16785;DHT22;8509;52.178;5.404;2023-09-12T11:45:54;25.80;99.90
16785;DHT22;8509;52.178;5.404;2023-09-12T11:48:20;25.80;99.90
16785;DHT22;8509;52.178;5.404;2023-09-12T11:50:53;25.70;99.90
16785;DHT22;8509;52.178;5.404;2023-09-12T11:53:26;25.70;99.90
16785;DHT22;8509;52.178;5.404;2023-09-12T11:55:57;25.60;99.90
16785;DHT22;8509;52.178;5.404;2023-09-12T11:58:24;25.60;99.90
16785;DHT22;8509;52.178;5.404;2023-09-12T12:00:52;25.50;99.90
16785;DHT22;8509;52.178;5.404;2023-09-12T12:03:20;25.50;99.90
16785;DHT22;8509;52.178;5.404;2023-09-12T12:05:47;25.40;99.90
16785;DHT22;8509;52.178;5.404;2023-09-12T12:08:14;25.50;99.90
16785;DHT22;8509;52.178;5.404;2023-09-12T12:10:40;25.70;99.90
16785;DHT22;8509;52.178;5.404;2023-09-12T12:13:26;26.00;99.90
16785;DHT22;8509;52.178;5.404;2023-09-12T12:15:53;26.30;99.90
16785;DHT22;8509;52.178;5.404;2023-09-12T12:18:19;26.50;99.90
16785;DHT22;8509;52.178;5.404;2023-09-12T12:20:45;26.70;99.90
16785;DHT22;8509;52.178;5.404;2023-09-12T12:23:11;26.50;99.90
16785;DHT22;8509;52.178;5.404;2023-09-12T12:25:37;26.70;99.90
16785;DHT22;8509;52.178;5.404;2023-09-12T12:28:04;26.80;99.90
16785;DHT22;8509;52.178;5.404;2023-09-12T12:30:34;26.70;99.90
16785;DHT22;8509;52.178;5.404;2023-09-12T12:33:09;26.60;99.90
16785;DHT22;8509;52.178;5.404;2023-09-12T12:35:35;26.70;99.90
16785;DHT22;8509;52.178;5.404;2023-09-12T12:38:02;26.80;99.90
16785;DHT22;8509;52.178;5.404;2023-09-12T12:40:28;26.80;99.90
16785;DHT22;8509;52.178;5.404;2023-09-12T12:42:54;27.00;99.90
16785;DHT22;8509;52.178;5.404;2023-09-12T12:45:23;27.10;99.90
16785;DHT22;8509;52.178;5.404;2023-09-12T12:47:57;27.30;99.90
16785;DHT22;8509;52.178;5.404;2023-09-12T12:50:23;27.40;99.90
16785;DHT22;8509;52.178;5.404;2023-09-12T12:52:49;27.50;99.90
16785;DHT22;8509;52.178;5.404;2023-09-12T12:55:15;27.60;99.90
16785;DHT22;8509;52.178;5.404;2023-09-12T12:57:43;27.50;99.90
16785;DHT22;8509;52.178;5.404;2023-09-12T13:00:10;27.40;99.90
16785;DHT22;8509;52.178;5.404;2023-09-12T13:02:39;27.10;99.90
16785;DHT22;8509;52.178;5.404;2023-09-12T13:05:18;27.00;99.90
16785;DHT22;8509;52.178;5.404;2023-09-12T13:07:45;26.80;99.90
16785;DHT22;8509;52.178;5.404;2023-09-12T13:10:11;26.50;99.90
16785;DHT22;8509;52.178;5.404;2023-09-12T13:12:36;26.40;99.90
16785;DHT22;8509;52.178;5.404;2023-09-12T13:15:04;26.10;99.90
16785;DHT22;8509;52.178;5.404;2023-09-12T13:17:30;26.00;99.90
16785;DHT22;8509;52.178;5.404;2023-09-12T13:19:56;25.70;99.90
16785;DHT22;8509;52.178;5.404;2023-09-12T13:22:21;25.50;99.90
16785;DHT22;8509;52.178;5.404;2023-09-12T13:24:47;25.20;99.90
16785;DHT22;8509;52.178;5.404;2023-09-12T13:27:13;25.10;99.90
16785;DHT22;8509;52.178;5.404;2023-09-12T13:29:39;24.80;99.90
16785;DHT22;8509;52.178;5.404;2023-09-12T13:32:05;24.60;99.90
16785;DHT22;8509;52.178;5.404;2023-09-12T13:34:31;24.30;99.90
16785;DHT22;8509;52.178;5.404;2023-09-12T13:36:57;24.20;99.90
16785;DHT22;8509;52.178;5.404;2023-09-12T13:39:24;24.00;99.90
16785;DHT22;8509;52.178;5.404;2023-09-12T13:41:49;23.90;99.90
16785;DHT22;8509;52.178;5.404;2023-09-12T13:44:16;23.90;99.90
16785;DHT22;8509;52.178;5.404;2023-09-12T13:46:42;24.00;99.90
16785;DHT22;8509;52.178;5.404;2023-09-12T13:49:10;24.20;99.90
16785;DHT22;8509;52.178;5.404;2023-09-12T13:51:35;24.50;99.90
16785;DHT22;8509;52.178;5.404;2023-09-12T13:54:01;24.70;99.90
16785;DHT22;8509;52.178;5.404;2023-09-12T13:56:28;24.90;99.90
16785;DHT22;8509;52.178;5.404;2023-09-12T13:58:54;25.10;99.90
16785;DHT22;8509;52.178;5.404;2023-09-12T14:01:19;25.50;99.90
16785;DHT22;8509;52.178;5.404;2023-09-12T14:03:45;25.70;99.90
16785;DHT22;8509;52.178;5.404;2023-09-12T14:06:11;25.80;99.90
16785;DHT22;8509;52.178;5.404;2023-09-12T14:08:36;26.00;99.90
16785;DHT22;8509;52.178;5.404;2023-09-12T14:11:02;25.80;99.90
16785;DHT22;8509;52.178;5.404;2023-09-12T14:13:28;25.80;99.90
16785;DHT22;8509;52.178;5.404;2023-09-12T14:15:54;25.80;99.90
16785;DHT22;8509;52.178;5.404;2023-09-12T14:18:19;25.80;99.90
16785;DHT22;8509;52.178;5.404;2023-09-12T14:20:46;25.90;99.90
16785;DHT22;8509;52.178;5.404;2023-09-12T14:23:12;25.70;99.90
16785;DHT22;8509;52.178;5.404;2023-09-12T14:25:40;25.50;99.90
16785;DHT22;8509;52.178;5.404;2023-09-12T14:28:05;25.10;99.90
16785;DHT22;8509;52.178;5.404;2023-09-12T14:30:31;24.90;99.90
16785;DHT22;8509;52.178;5.404;2023-09-12T14:33:02;24.80;99.90
16785;DHT22;8509;52.178;5.404;2023-09-12T14:35:28;24.80;99.90
16785;DHT22;8509;52.178;5.404;2023-09-12T14:37:54;24.50;99.90
16785;DHT22;8509;52.178;5.404;2023-09-12T14:40:20;24.40;99.90
16785;DHT22;8509;52.178;5.404;2023-09-12T14:42:52;24.40;99.90
16785;DHT22;8509;52.178;5.404;2023-09-12T14:45:17;24.40;99.90
16785;DHT22;8509;52.178;5.404;2023-09-12T14:47:43;24.40;99.90
16785;DHT22;8509;52.178;5.404;2023-09-12T14:50:09;24.40;99.90
16785;DHT22;8509;52.178;5.404;2023-09-12T14:52:35;24.40;99.90
16785;DHT22;8509;52.178;5.404;2023-09-12T14:55:00;24.50;99.90
16785;DHT22;8509;52.178;5.404;2023-09-12T14:57:27;24.70;99.90
16785;DHT22;8509;52.178;5.404;2023-09-12T14:59:52;24.90;99.90
16785;DHT22;8509;52.178;5.404;2023-09-12T15:02:18;24.90;99.90
16785;DHT22;8509;52.178;5.404;2023-09-12T15:04:44;24.90;99.90
16785;DHT22;8509;52.178;5.404;2023-09-12T15:07:10;24.90;99.90
16785;DHT22;8509;52.178;5.404;2023-09-12T15:09:35;24.90;99.90
16785;DHT22;8509;52.178;5.404;2023-09-12T15:12:01;24.90;99.90
16785;DHT22;8509;52.178;5.404;2023-09-12T15:14:26;24.80;99.90
16785;DHT22;8509;52.178;5.404;2023-09-12T15:16:52;24.70;99.90
16785;DHT22;8509;52.178;5.404;2023-09-12T15:19:18;24.60;99.90
16785;DHT22;8509;52.178;5.404;2023-09-12T15:21:45;24.50;99.90
16785;DHT22;8509;52.178;5.404;2023-09-12T15:24:11;24.40;99.90
16785;DHT22;8509;52.178;5.404;2023-09-12T15:26:37;24.40;99.90
16785;DHT22;8509;52.178;5.404;2023-09-12T15:29:04;24.40;99.90
16785;DHT22;8509;52.178;5.404;2023-09-12T15:31:29;24.40;99.90
16785;DHT22;8509;52.178;5.404;2023-09-12T15:33:55;24.30;99.90
16785;DHT22;8509;52.178;5.404;2023-09-12T15:36:22;24.30;99.90
16785;DHT22;8509;52.178;5.404;2023-09-12T15:38:48;24.30;99.90
16785;DHT22;8509;52.178;5.404;2023-09-12T15:41:14;24.40;99.90
16785;DHT22;8509;52.178;5.404;2023-09-12T15:43:40;24.40;99.90
16785;DHT22;8509;52.178;5.404;2023-09-12T15:46:06;24.50;99.90
16785;DHT22;8509;52.178;5.404;2023-09-12T15:48:32;24.50;99.90
16785;DHT22;8509;52.178;5.404;2023-09-12T15:50:58;24.40;99.90
16785;DHT22;8509;52.178;5.404;2023-09-12T15:53:24;24.40;99.90
16785;DHT22;8509;52.178;5.404;2023-09-12T15:55:50;24.40;99.90
16785;DHT22;8509;52.178;5.404;2023-09-12T15:58:17;24.30;99.90